Time;durP1;ratioP1;P1;durP2;ratioP2;P2;SDS_P1;SDS_P2;PMS_P1;PMS_P2;Temp;Humidity;BMP_temperature;BMP_pressure;BME280_temperature;BME280_humidity;BME280_pressure;Samples;Min_cycle;Max_cycle;Signal;HPM_P1;HPM_P2
2022/11/12 00:00:19;;;;;;;;;;;;;;;;;;2064335;28;20013;-86
2022/11/12 00:01:19;;;;;;;;;;;;;;;;;;2064290;28;20334;-86
2022/11/12 00:02:20;;;;;;;;;;;;;;;;;;2064359;28;19909;-86
2022/11/12 00:03:20;;;;;;;;;;;;;;;;;;2062475;28;20007;-86
2022/11/12 00:04:21;;;;;;;;;;;;;;;;;;2064209;28;19971;-86
2022/11/12 00:05:21;;;;;;;;;;;;;;;;;;2064254;28;19956;-85
2022/11/12 00:06:21;;;;;;;;;;;;;;;;;;2064973;28;20059;-85
2022/11/12 00:07:21;;;;;;;;;;;;;;;;;;2066249;28;19955;-85
2022/11/12 00:08:22;;;;;;;;;;;;;;;;;;2066023;28;19917;-86
2022/11/12 00:09:22;;;;;;;;;;;;;;;;;;2066569;28;19911;-86
2022/11/12 00:10:23;;;;;;;;;;;;;;;;;;2065755;28;19947;-86
2022/11/12 00:11:23;;;;;;;;;;;;;;;;;;2064113;28;20380;-87
2022/11/12 00:12:23;;;;;;;;;;;;;;;;;;2064444;28;19984;-86
2022/11/12 00:13:23;;;;;;;;;;;;;;;;;;2064919;28;19914;-87
2022/11/12 00:14:24;;;;;;;;;;;;;;;;;;2065078;28;19913;-86
2022/11/12 00:15:25;;;;;;;;;;;;;;;;;;1716014;28;10108111;-87
2022/11/12 00:16:25;;;;;;;;;;;;;;;;;;2055508;28;20568;-87
2022/11/12 00:17:25;;;;;;;;;;;;;;;;;;2064578;28;19936;-87
2022/11/12 00:18:26;;;;;;;;;;;;;;;;;;2065331;28;20418;-87
2022/11/12 00:19:26;;;;;;;;;;;;;;;;;;2061570;28;19949;-86
2022/11/12 00:20:26;;;;;;;;;;;;;;;;;;2056928;28;20621;-86
2022/11/12 00:21:27;;;;;;;;;;;;;;;;;;2056861;28;19921;-86
2022/11/12 00:22:27;;;;;;;;;;;;;;;;;;2056229;28;20359;-86
2022/11/12 00:23:27;;;;;;;;;;;;;;;;;;2056379;28;19993;-87
2022/11/12 00:24:27;;;;;;;;;;;;;;;;;;2056998;28;19910;-87
2022/11/12 00:25:28;;;;;;;;;;;;;;;;;;2057745;28;19910;-87
2022/11/12 00:26:28;;;;;;;;;;;;;;;;;;2065653;28;20055;-86
2022/11/12 00:27:30;;;;;;;;;;;;;;;;;;2065792;28;19910;-87
2022/11/12 00:28:31;;;;;;;;;;;;;;;;;;2058457;28;20544;-87
2022/11/12 00:29:31;;;;;;;;;;;;;;;;;;2065892;28;19980;-87
2022/11/12 00:30:31;;;;;;;;;;;;;;;;;;2065799;28;19961;-87
2022/11/12 00:31:33;;;;;;;;;;;;;;;;;;2058366;28;19910;-87
2022/11/12 00:32:36;;;;;;;;;;;;;;;;;;2065673;28;19948;-87
2022/11/12 00:33:38;;;;;;;;;;;;;;;;;;2065359;28;19909;-87
2022/11/12 00:34:38;;;;;;;;;;;;;;;;;;2065810;28;19910;-87
2022/11/12 00:35:39;;;;;;;;;;;;;;;;;;2057755;28;20265;-86
2022/11/12 00:36:39;;;;;;;;;;;;;;;;;;2060319;28;19914;-85
2022/11/12 00:37:39;;;;;;;;;;;;;;;;;;2059514;28;19914;-87
2022/11/12 00:38:39;;;;;;;;;;;;;;;;;;2057761;28;19910;-86
2022/11/12 00:39:40;;;;;;;;;;;;;;;;;;2057517;28;20488;-86
2022/11/12 00:40:41;;;;;;;;;;;;;;;;;;2057772;28;20361;-86
2022/11/12 00:41:41;;;;;;;;;;;;;;;;;;2058229;28;19914;-85
2022/11/12 00:42:42;;;;;;;;;;;;;;;;;;2057604;28;19910;-85
2022/11/12 00:43:43;;;;;;;;;;;;;;;;;;2057449;28;20013;-85
2022/11/12 00:44:43;;;;;;;;;;;;;;;;;;2065541;28;19941;-86
2022/11/12 00:45:44;;;;;;;;;;;;;;;;;;2065739;28;19914;-85
2022/11/12 00:46:44;;;;;;;;;;;;;;;;;;2057685;28;20305;-86
2022/11/12 00:47:44;;;;;;;;;;;;;;;;;;2057579;28;19914;-86
2022/11/12 00:48:45;;;;;;;;;;;;;;;;;;2057407;28;19961;-86
2022/11/12 00:49:45;;;;;;;;;;;;;;;;;;2057514;28;19946;-86
2022/11/12 00:50:45;;;;;;;;;;;;;;;;;;2065387;28;20329;-86
2022/11/12 00:51:46;;;;;;;;;;;;;;;;;;2065614;28;19914;-86
2022/11/12 00:52:46;;;;;;;;;;;;;;;;;;2058148;28;20341;-86
2022/11/12 00:53:47;;;;;;;;;;;;;;;;;;2058208;28;19972;-86
2022/11/12 00:54:48;;;;;;;;;;;;;;;;;;2065607;28;19909;-86
2022/11/12 00:55:48;;;;;;;;;;;;;;;;;;2065545;28;19925;-87
2022/11/12 00:56:48;;;;;;;;;;;;;;;;;;2058140;28;20032;-86
2022/11/12 00:57:49;;;;;;;;;;;;;;;;;;2060444;28;20008;-87
2022/11/12 00:58:49;;;;;;;;;;;;;;;;;;2063799;28;19959;-87
2022/11/12 00:59:49;;;;;;;;;;;;;;;;;;2065324;28;19948;-87
2022/11/12 01:00:49;;;;;;;;;;;;;;;;;;2065602;28;19964;-87
2022/11/12 01:01:50;;;;;;;;;;;;;;;;;;2048901;28;19921;-87
2022/11/12 01:02:50;;;;;;;;;;;;;;;;;;2065955;28;20400;-87
2022/11/12 01:03:51;;;;;;;;;;;;;;;;;;2065180;28;20308;-87
2022/11/12 01:04:51;;;;;;;;;;;;;;;;;;2065637;28;20582;-87
2022/11/12 01:05:51;;;;;;;;;;;;;;;;;;2065757;28;19910;-87
2022/11/12 01:06:52;;;;;;;;;;;;;;;;;;2058191;28;20310;-88
2022/11/12 01:07:52;;;;;;;;;;;;;;;;;;2049648;28;19934;-87
2022/11/12 01:08:53;;;;;;;;;;;;;;;;;;2057000;28;19909;-87
2022/11/12 01:09:54;;;;;;;;;;;;;;;;;;2057467;28;19910;-87
2022/11/12 01:10:54;;;;;;;;;;;;;;;;;;1706712;28;10230905;-86
2022/11/12 01:11:54;;;;;;;;;;;;;;;;;;2057581;28;20014;-86
2022/11/12 01:12:54;;;;;;;;;;;;;;;;;;2057953;28;20369;-86
2022/11/12 01:13:56;;;;;;;;;;;;;;;;;;2057154;28;19917;-86
2022/11/12 01:14:58;;;;;;;;;;;;;;;;;;2049072;28;19910;-86
2022/11/12 01:15:58;;;;;;;;;;;;;;;;;;2049302;28;19941;-85
2022/11/12 01:16:59;;;;;;;;;;;;;;;;;;2057560;28;20040;-87
2022/11/12 01:17:59;;;;;;;;;;;;;;;;;;2058384;28;20391;-87
2022/11/12 01:19:01;;;;;;;;;;;;;;;;;;2058520;28;19933;-87
2022/11/12 01:20:02;;;;;;;;;;;;;;;;;;2057490;28;19913;-84
2022/11/12 01:21:04;;;;;;;;;;;;;;;;;;2057929;28;19910;-86
2022/11/12 01:22:04;;;;;;;;;;;;;;;;;;2058430;28;19914;-87
2022/11/12 01:23:05;;;;;;;;;;;;;;;;;;2058086;28;20560;-87
2022/11/12 01:24:05;;;;;;;;;;;;;;;;;;2058184;28;19921;-86
2022/11/12 01:25:06;;;;;;;;;;;;;;;;;;2058351;28;19910;-86
2022/11/12 01:26:07;;;;;;;;;;;;;;;;;;2065670;28;20361;-86
2022/11/12 01:27:07;;;;;;;;;;;;;;;;;;2065555;28;19917;-86
2022/11/12 01:28:08;;;;;;;;;;;;;;;;;;2057269;28;19965;-87
2022/11/12 01:29:08;;;;;;;;;;;;;;;;;;2057283;28;20048;-86
2022/11/12 01:30:09;;;;;;;;;;;;;;;;;;2058109;28;19917;-86
2022/11/12 01:31:14;;;;;;;;;;;;;;;;;;2058431;28;20329;-86
2022/11/12 01:32:14;;;;;;;;;;;;;;;;;;2058051;28;19910;-86
2022/11/12 01:33:14;;;;;;;;;;;;;;;;;;2057410;28;19918;-86
2022/11/12 01:34:15;;;;;;;;;;;;;;;;;;2057692;28;19917;-87
2022/11/12 01:35:15;;;;;;;;;;;;;;;;;;2058183;28;19949;-87
2022/11/12 01:36:17;;;;;;;;;;;;;;;;;;2058248;28;20289;-87
2022/11/12 01:37:17;;;;;;;;;;;;;;;;;;2057494;28;19956;-87
2022/11/12 01:38:18;;;;;;;;;;;;;;;;;;2057497;28;19982;-86
2022/11/12 01:39:18;;;;;;;;;;;;;;;;;;2058190;28;19969;-87
2022/11/12 01:40:19;;;;;;;;;;;;;;;;;;2058019;28;19913;-86
2022/11/12 01:41:23;;;;;;;;;;;;;;;;;;2057401;28;19910;-87
2022/11/12 01:42:28;;;;;;;;;;;;;;;;;;2057725;28;19910;-87
2022/11/12 01:43:28;;;;;;;;;;;;;;;;;;2058130;28;19910;-87
2022/11/12 01:44:30;;;;;;;;;;;;;;;;;;2065324;28;19910;-86
2022/11/12 01:45:30;;;;;;;;;;;;;;;;;;2054647;28;19920;-87
2022/11/12 01:46:31;;;;;;;;;;;;;;;;;;2057768;28;20274;-87
2022/11/12 01:47:33;;;;;;;;;;;;;;;;;;2065708;28;19963;-87
2022/11/12 01:48:38;;;;;;;;;;;;;;;;;;2065555;28;19914;-87
2022/11/12 01:49:40;;;;;;;;;;;;;;;;;;2064919;28;19910;-87
2022/11/12 01:50:41;;;;;;;;;;;;;;;;;;2058253;28;20380;-87
2022/11/12 01:51:46;;;;;;;;;;;;;;;;;;2057963;28;20060;-87
2022/11/12 01:53:00;;;;;;;;;;;;;;;;;;2058049;28;19964;-87
2022/11/12 01:54:04;;;;;;;;;;;;;;;;;;2057700;28;19915;-86
2022/11/12 01:55:08;;;;;;;;;;;;;;;;;;2065256;28;19913;-87
2022/11/12 01:56:08;;;;;;;;;;;;;;;;;;2065424;28;19909;-87
2022/11/12 01:57:09;;;;;;;;;;;;;;;;;;2057188;28;20004;-86
2022/11/12 01:58:11;;;;;;;;;;;;;;;;;;2057783;28;19972;-86
2022/11/12 01:59:15;;;;;;;;;;;;;;;;;;2065457;28;19957;-86
2022/11/12 02:00:16;;;;;;;;;;;;;;;;;;2064929;28;20340;-86
2022/11/12 02:01:16;;;;;;;;;;;;;;;;;;2057817;28;19932;-86
2022/11/12 02:02:16;;;;;;;;;;;;;;;;;;1706296;28;10246829;-86
2022/11/12 02:03:22;;;;;;;;;;;;;;;;;;2057865;28;19917;-86
2022/11/12 02:04:22;;;;;;;;;;;;;;;;;;2057903;28;20392;-85
2022/11/12 02:05:24;;;;;;;;;;;;;;;;;;1714467;28;10000735;-84
2022/11/12 02:06:24;;;;;;;;;;;;;;;;;;2057054;28;19910;-86
2022/11/12 02:07:24;;;;;;;;;;;;;;;;;;2057581;28;19913;-86
2022/11/12 02:08:26;;;;;;;;;;;;;;;;;;2057889;28;19910;-87
2022/11/12 02:09:27;;;;;;;;;;;;;;;;;;2065154;28;19910;-87
2022/11/12 02:10:27;;;;;;;;;;;;;;;;;;2065287;28;19916;-87
2022/11/12 02:11:27;;;;;;;;;;;;;;;;;;2062142;28;19898;-86
2022/11/12 02:14:01;;;;;;;;;;;;;;;;;;2072509;28;19921;-87
2022/11/12 02:15:02;;;;;;;;;;;;;;;;;;2061537;28;20013;-87
2022/11/12 02:16:03;;;;;;;;;;;;;;;;;;2059173;28;19910;-87
2022/11/12 02:17:03;;;;;;;;;;;;;;;;;;2065619;28;20005;-86
2022/11/12 02:18:04;;;;;;;;;;;;;;;;;;2065301;28;19948;-87
2022/11/12 02:19:05;;;;;;;;;;;;;;;;;;2058918;28;20588;-87
2022/11/12 02:20:10;;;;;;;;;;;;;;;;;;2057576;28;19940;-87
2022/11/12 02:21:11;;;;;;;;;;;;;;;;;;1706606;28;10233720;-86
2022/11/12 02:22:12;;;;;;;;;;;;;;;;;;2057606;28;19956;-87
2022/11/12 02:23:12;;;;;;;;;;;;;;;;;;2057692;28;19914;-87
2022/11/12 02:24:12;;;;;;;;;;;;;;;;;;2065085;28;20523;-87
2022/11/12 02:25:21;;;;;;;;;;;;;;;;;;2065104;28;20009;-87
2022/11/12 02:26:21;;;;;;;;;;;;;;;;;;2056935;28;20389;-86
2022/11/12 02:27:21;;;;;;;;;;;;;;;;;;1713843;28;10001711;-86
2022/11/12 02:28:22;;;;;;;;;;;;;;;;;;2064806;28;19989;-85
2022/11/12 02:29:22;;;;;;;;;;;;;;;;;;2064761;28;20656;-87
2022/11/12 02:30:39;;;;;;;;;;;;;;;;;;2064981;28;19909;-86
2022/11/12 02:31:39;;;;;;;;;;;;;;;;;;2062685;28;20195;-87
2022/11/12 02:32:40;;;;;;;;;;;;;;;;;;2073960;28;19913;-86
2022/11/12 02:33:40;;;;;;;;;;;;;;;;;;2074026;28;19905;-87
2022/11/12 02:34:40;;;;;;;;;;;;;;;;;;2065539;28;19940;-87
2022/11/12 02:35:41;;;;;;;;;;;;;;;;;;2067747;28;19910;-86
2022/11/12 02:36:41;;;;;;;;;;;;;;;;;;2067642;28;19953;-86
2022/11/12 02:37:41;;;;;;;;;;;;;;;;;;2057947;28;20282;-86
2022/11/12 02:38:41;;;;;;;;;;;;;;;;;;2057313;28;19917;-86
2022/11/12 02:39:42;;;;;;;;;;;;;;;;;;2058848;28;19910;-86
2022/11/12 02:40:42;;;;;;;;;;;;;;;;;;2065074;28;20392;-86
2022/11/12 02:41:42;;;;;;;;;;;;;;;;;;2065089;28;19914;-86
2022/11/12 02:42:42;;;;;;;;;;;;;;;;;;2057524;28;20412;-86
2022/11/12 02:43:43;;;;;;;;;;;;;;;;;;2057589;28;19910;-86
2022/11/12 02:44:44;;;;;;;;;;;;;;;;;;2064884;28;19913;-86
2022/11/12 02:45:44;;;;;;;;;;;;;;;;;;2064950;28;19913;-86
2022/11/12 02:46:44;;;;;;;;;;;;;;;;;;2057474;28;19914;-87
2022/11/12 02:47:44;;;;;;;;;;;;;;;;;;2056569;28;19913;-86
2022/11/12 02:48:45;;;;;;;;;;;;;;;;;;2056619;28;19971;-86
2022/11/12 02:49:45;;;;;;;;;;;;;;;;;;2057492;28;19910;-86
2022/11/12 02:50:46;;;;;;;;;;;;;;;;;;1705818;28;10245009;-86
2022/11/12 02:51:46;;;;;;;;;;;;;;;;;;2057599;28;19921;-86
2022/11/12 02:52:48;;;;;;;;;;;;;;;;;;2057451;28;19952;-86
2022/11/12 02:53:48;;;;;;;;;;;;;;;;;;2057508;28;20341;-86
2022/11/12 02:54:48;;;;;;;;;;;;;;;;;;2057360;28;19949;-86
2022/11/12 02:55:48;;;;;;;;;;;;;;;;;;2057316;28;20009;-86
2022/11/12 02:56:49;;;;;;;;;;;;;;;;;;2057200;28;19964;-87
2022/11/12 02:57:49;;;;;;;;;;;;;;;;;;2064784;28;19913;-86
2022/11/12 02:58:49;;;;;;;;;;;;;;;;;;2064585;28;19910;-86
2022/11/12 02:59:50;;;;;;;;;;;;;;;;;;2064571;28;19910;-86
2022/11/12 03:00:51;;;;;;;;;;;;;;;;;;2056632;28;19910;-86
2022/11/12 03:01:51;;;;;;;;;;;;;;;;;;2056662;28;19914;-87
2022/11/12 03:02:58;;;;;;;;;;;;;;;;;;1867764;28;10236111;-86
2022/11/12 03:03:59;;;;;;;;;;;;;;;;;;2056469;28;19929;-86
2022/11/12 03:04:59;;;;;;;;;;;;;;;;;;2048533;28;20309;-86
2022/11/12 03:06:00;;;;;;;;;;;;;;;;;;2056586;28;19976;-86
2022/11/12 03:07:00;;;;;;;;;;;;;;;;;;2057378;28;20381;-86
2022/11/12 03:08:02;;;;;;;;;;;;;;;;;;2057360;28;20000;-86
2022/11/12 03:09:02;;;;;;;;;;;;;;;;;;2057407;28;20004;-86
2022/11/12 03:10:03;;;;;;;;;;;;;;;;;;2057250;28;19969;-86
2022/11/12 03:11:11;;;;;;;;;;;;;;;;;;2057245;28;19910;-86
2022/11/12 03:12:11;;;;;;;;;;;;;;;;;;2064695;28;20008;-87
2022/11/12 03:13:12;;;;;;;;;;;;;;;;;;2064942;28;19987;-86
2022/11/12 03:14:12;;;;;;;;;;;;;;;;;;2057335;28;19917;-86
2022/11/12 03:15:12;;;;;;;;;;;;;;;;;;2057280;28;20392;-87
2022/11/12 03:16:12;;;;;;;;;;;;;;;;;;2064537;28;20380;-86
2022/11/12 03:17:13;;;;;;;;;;;;;;;;;;2064680;28;19909;-86
2022/11/12 03:18:13;;;;;;;;;;;;;;;;;;2064479;28;20377;-86
2022/11/12 03:19:14;;;;;;;;;;;;;;;;;;2056461;28;20346;-86
2022/11/12 03:20:14;;;;;;;;;;;;;;;;;;2056738;28;19996;-87
2022/11/12 03:21:14;;;;;;;;;;;;;;;;;;2056489;28;19914;-86
2022/11/12 03:22:15;;;;;;;;;;;;;;;;;;2048708;28;19914;-86
2022/11/12 03:23:15;;;;;;;;;;;;;;;;;;2057502;28;19917;-86
2022/11/12 03:24:16;;;;;;;;;;;;;;;;;;2066840;28;19999;-86
2022/11/12 03:25:17;;;;;;;;;;;;;;;;;;2070793;28;19909;-85
2022/11/12 03:26:17;;;;;;;;;;;;;;;;;;2071181;28;19909;-85
2022/11/12 03:27:17;;;;;;;;;;;;;;;;;;2071932;28;19984;-85
2022/11/12 03:28:25;;;;;;;;;;;;;;;;;;1964142;28;10246984;-86
2022/11/12 03:29:26;;;;;;;;;;;;;;;;;;2070886;28;19914;-86
2022/11/12 03:30:28;;;;;;;;;;;;;;;;;;2060875;28;19910;-86
2022/11/12 03:31:28;;;;;;;;;;;;;;;;;;2058063;28;19910;-86
2022/11/12 03:32:29;;;;;;;;;;;;;;;;;;2057269;28;19910;-85
2022/11/12 03:33:29;;;;;;;;;;;;;;;;;;2057367;28;19953;-86
2022/11/12 03:34:29;;;;;;;;;;;;;;;;;;2064535;28;19917;-86
2022/11/12 03:35:30;;;;;;;;;;;;;;;;;;2064673;28;19945;-85
2022/11/12 03:36:30;;;;;;;;;;;;;;;;;;2064596;28;19941;-86
2022/11/12 03:37:30;;;;;;;;;;;;;;;;;;2056787;28;19922;-86
2022/11/12 03:38:32;;;;;;;;;;;;;;;;;;2052902;28;19969;-86
2022/11/12 03:39:32;;;;;;;;;;;;;;;;;;2063773;28;19912;-86
2022/11/12 03:40:33;;;;;;;;;;;;;;;;;;2063148;28;19917;-86
2022/11/12 03:41:33;;;;;;;;;;;;;;;;;;2060865;28;19910;-85
2022/11/12 03:42:34;;;;;;;;;;;;;;;;;;2058222;28;20130;-86
2022/11/12 03:43:34;;;;;;;;;;;;;;;;;;2057380;28;20301;-86
2022/11/12 03:44:34;;;;;;;;;;;;;;;;;;2049176;28;19922;-86
2022/11/12 03:45:34;;;;;;;;;;;;;;;;;;2048629;29;20461;-86
2022/11/12 03:46:35;;;;;;;;;;;;;;;;;;2056862;28;19946;-86
2022/11/12 03:47:35;;;;;;;;;;;;;;;;;;2056811;28;19995;-86
2022/11/12 03:48:35;;;;;;;;;;;;;;;;;;2048846;28;19977;-86
2022/11/12 03:49:35;;;;;;;;;;;;;;;;;;2056686;28;20349;-86
2022/11/12 03:50:36;;;;;;;;;;;;;;;;;;2057339;28;20000;-86
2022/11/12 03:51:36;;;;;;;;;;;;;;;;;;2057193;28;20361;-86
2022/11/12 03:52:37;;;;;;;;;;;;;;;;;;2056471;28;19911;-86
2022/11/12 03:53:37;;;;;;;;;;;;;;;;;;2048386;28;19917;-86
2022/11/12 03:54:37;;;;;;;;;;;;;;;;;;2056447;28;20348;-86
2022/11/12 03:55:37;;;;;;;;;;;;;;;;;;2057309;28;19914;-86
2022/11/12 03:56:38;;;;;;;;;;;;;;;;;;1705584;28;10234724;-86
2022/11/12 03:57:38;;;;;;;;;;;;;;;;;;2056575;28;19910;-87
2022/11/12 03:58:39;;;;;;;;;;;;;;;;;;2056617;28;20253;-87
2022/11/12 03:59:39;;;;;;;;;;;;;;;;;;2056884;28;19921;-87
2022/11/12 04:00:39;;;;;;;;;;;;;;;;;;2058163;28;19910;-88
2022/11/12 04:01:40;;;;;;;;;;;;;;;;;;2058397;28;19932;-87
2022/11/12 04:02:40;;;;;;;;;;;;;;;;;;2058604;28;19933;-87
2022/11/12 04:03:40;;;;;;;;;;;;;;;;;;2066237;28;19910;-87
2022/11/12 04:08:37;;;;;;;;;;;;;;;;;;2058645;28;19910;-86
2022/11/12 04:09:37;;;;;;;;;;;;;;;;;;2058944;28;19910;-87
2022/11/12 04:10:38;;;;;;;;;;;;;;;;;;2058640;28;20444;-87
2022/11/12 04:11:38;;;;;;;;;;;;;;;;;;2063030;28;19913;-86
2022/11/12 04:13:57;;;;;;;;;;;;;;;;;;2067037;28;19910;-87
2022/11/12 04:14:58;;;;;;;;;;;;;;;;;;2066228;28;20583;-87
2022/11/12 04:22:33;;;;;;;;;;;;;;;;;;2066667;28;19917;-87
2022/11/12 04:23:33;;;;;;;;;;;;;;;;;;2066456;28;19992;-87
2022/11/12 04:27:14;;;;;;;;;;;;;;;;;;2066681;28;19936;-87
2022/11/12 04:28:15;;;;;;;;;;;;;;;;;;2066761;28;19913;-87
2022/11/12 04:30:34;;;;;;;;;;;;;;;;;;2066291;28;19910;-87
2022/11/12 04:31:34;;;;;;;;;;;;;;;;;;2065746;28;20000;-87
2022/11/12 04:32:36;;;;;;;;;;;;;;;;;;2065768;28;19972;-87
2022/11/12 04:33:36;;;;;;;;;;;;;;;;;;2066212;28;19917;-87
2022/11/12 04:34:36;;;;;;;;;;;;;;;;;;2065957;28;19972;-88
2022/11/12 04:35:36;;;;;;;;;;;;;;;;;;2065891;28;19910;-87
2022/11/12 04:36:37;;;;;;;;;;;;;;;;;;2065870;28;19920;-87
2022/11/12 04:37:43;;;;;;;;;;;;;;;;;;2073798;28;19974;-88
2022/11/12 04:38:44;;;;;;;;;;;;;;;;;;2066061;28;20411;-87
2022/11/12 04:39:44;;;;;;;;;;;;;;;;;;2065811;28;19940;-87
2022/11/12 04:46:02;;;;;;;;;;;;;;;;;;2066275;28;20481;-88
2022/11/12 04:47:03;;;;;;;;;;;;;;;;;;2066075;28;19921;-88
2022/11/12 04:48:04;;;;;;;;;;;;;;;;;;2066089;28;19910;-88
2022/11/12 04:49:04;;;;;;;;;;;;;;;;;;2065332;28;19936;-88
2022/11/12 04:50:06;;;;;;;;;;;;;;;;;;2065687;28;19913;-88
2022/11/12 04:52:03;;;;;;;;;;;;;;;;;;2065805;28;19945;-89
2022/11/12 04:52:28;;;;;;;;;;;;;;;;;;2065809;28;19910;-88
2022/11/12 04:53:29;;;;;;;;;;;;;;;;;;2065406;28;19965;-88
2022/11/12 04:54:29;;;;;;;;;;;;;;;;;;2065493;28;19984;-86
2022/11/12 04:55:30;;;;;;;;;;;;;;;;;;2065770;28;19979;-87
2022/11/12 04:56:31;;;;;;;;;;;;;;;;;;2066171;28;19929;-86
2022/11/12 04:57:31;;;;;;;;;;;;;;;;;;2071175;28;19941;-87
2022/11/12 04:58:31;;;;;;;;;;;;;;;;;;2074317;28;19905;-86
2022/11/12 04:59:32;;;;;;;;;;;;;;;;;;2069848;28;19949;-87
2022/11/12 05:00:32;;;;;;;;;;;;;;;;;;2070677;28;20393;-86
2022/11/12 05:01:32;;;;;;;;;;;;;;;;;;2082197;28;19929;-86
2022/11/12 05:02:32;;;;;;;;;;;;;;;;;;2072226;28;19910;-87
2022/11/12 05:03:33;;;;;;;;;;;;;;;;;;2076146;28;19917;-86
2022/11/12 05:04:33;;;;;;;;;;;;;;;;;;2067464;28;19937;-87
2022/11/12 05:05:33;;;;;;;;;;;;;;;;;;2057614;28;19914;-87
2022/11/12 05:06:51;;;;;;;;;;;;;;;;;;2065531;28;20336;-87
2022/11/12 05:07:52;;;;;;;;;;;;;;;;;;2065612;28;20351;-86
2022/11/12 05:08:52;;;;;;;;;;;;;;;;;;2065691;28;19910;-86
2022/11/12 05:09:52;;;;;;;;;;;;;;;;;;2065617;28;19976;-86
2022/11/12 05:10:54;;;;;;;;;;;;;;;;;;2065369;28;20399;-86
2022/11/12 05:11:55;;;;;;;;;;;;;;;;;;2073305;28;20027;-86
2022/11/12 05:12:55;;;;;;;;;;;;;;;;;;2072832;28;20604;-86
2022/11/12 05:13:56;;;;;;;;;;;;;;;;;;2072684;28;19932;-86
2022/11/12 05:14:56;;;;;;;;;;;;;;;;;;2067079;28;20391;-86
2022/11/12 05:15:57;;;;;;;;;;;;;;;;;;2067945;28;19910;-86
2022/11/12 05:16:57;;;;;;;;;;;;;;;;;;2067379;28;20447;-86
2022/11/12 05:17:58;;;;;;;;;;;;;;;;;;2074024;28;19905;-87
2022/11/12 05:18:58;;;;;;;;;;;;;;;;;;2074446;28;19926;-86
2022/11/12 05:19:58;;;;;;;;;;;;;;;;;;2082219;28;19996;-86
2022/11/12 05:22:03;;;;;;;;;;;;;;;;;;2081611;28;19940;-87
2022/11/12 05:22:19;;;;;;;;;;;;;;;;;;2069645;28;19909;-86
2022/11/12 05:23:19;;;;;;;;;;;;;;;;;;2067807;28;19905;-87
2022/11/12 05:24:20;;;;;;;;;;;;;;;;;;2065815;28;19910;-87
2022/11/12 05:25:20;;;;;;;;;;;;;;;;;;2066001;28;20000;-86
2022/11/12 05:26:20;;;;;;;;;;;;;;;;;;2073338;28;19909;-87
2022/11/12 05:27:21;;;;;;;;;;;;;;;;;;2065411;28;19968;-86
2022/11/12 05:28:21;;;;;;;;;;;;;;;;;;2065566;28;20388;-90
2022/11/12 05:29:21;;;;;;;;;;;;;;;;;;2065753;28;19921;-89
2022/11/12 05:30:21;;;;;;;;;;;;;;;;;;2065879;28;19992;-87
2022/11/12 05:31:22;;;;;;;;;;;;;;;;;;2065086;28;20323;-89
2022/11/12 05:32:22;;;;;;;;;;;;;;;;;;2057152;28;19996;-88
2022/11/12 05:33:22;;;;;;;;;;;;;;;;;;2065544;28;20373;-88
2022/11/12 05:34:23;;;;;;;;;;;;;;;;;;2065363;28;20246;-88
2022/11/12 05:35:23;;;;;;;;;;;;;;;;;;2065987;28;20430;-89
2022/11/12 05:36:27;;;;;;;;;;;;;;;;;;1861562;28;10001375;-89
2022/11/12 05:37:28;;;;;;;;;;;;;;;;;;2057626;28;19914;-88
2022/11/12 05:38:28;;;;;;;;;;;;;;;;;;2057112;28;20053;-88
2022/11/12 05:39:28;;;;;;;;;;;;;;;;;;2064896;28;19992;-88
2022/11/12 05:40:29;;;;;;;;;;;;;;;;;;2065392;28;19913;-89
2022/11/12 05:41:29;;;;;;;;;;;;;;;;;;2064728;28;20440;-89
2022/11/12 05:42:29;;;;;;;;;;;;;;;;;;2064779;28;19910;-88
2022/11/12 05:43:31;;;;;;;;;;;;;;;;;;2064213;28;20368;-89
2022/11/12 05:44:31;;;;;;;;;;;;;;;;;;2072523;28;20296;-89
2022/11/12 05:45:32;;;;;;;;;;;;;;;;;;2065190;28;20000;-89
2022/11/12 05:46:32;;;;;;;;;;;;;;;;;;2064357;28;20370;-89
2022/11/12 05:47:32;;;;;;;;;;;;;;;;;;2065168;28;19960;-88
2022/11/12 05:48:32;;;;;;;;;;;;;;;;;;2064533;28;19953;-88
2022/11/12 05:49:33;;;;;;;;;;;;;;;;;;2064608;28;19910;-87
2022/11/12 05:50:33;;;;;;;;;;;;;;;;;;1714331;28;10161813;-88
2022/11/12 05:51:33;;;;;;;;;;;;;;;;;;2056452;28;19917;-88
2022/11/12 05:52:35;;;;;;;;;;;;;;;;;;2064418;28;19917;-90
2022/11/12 05:53:35;;;;;;;;;;;;;;;;;;2064322;28;19914;-87
2022/11/12 05:54:35;;;;;;;;;;;;;;;;;;2072457;28;20129;-89
2022/11/12 05:55:35;;;;;;;;;;;;;;;;;;2064557;28;19909;-90
2022/11/12 05:56:36;;;;;;;;;;;;;;;;;;2056388;28;19925;-89
2022/11/12 05:57:36;;;;;;;;;;;;;;;;;;2064807;28;19914;-90
2022/11/12 05:58:37;;;;;;;;;;;;;;;;;;2064560;28;19975;-89
2022/11/12 05:59:37;;;;;;;;;;;;;;;;;;1712090;28;10246443;-88
2022/11/12 06:00:40;;;;;;;;;;;;;;;;;;2065113;28;20020;-89
2022/11/12 06:01:42;;;;;;;;;;;;;;;;;;2064839;28;20293;-88
2022/11/12 06:02:43;;;;;;;;;;;;;;;;;;2065129;28;20367;-89
2022/11/12 06:03:43;;;;;;;;;;;;;;;;;;1712640;28;10241666;-89
2022/11/12 06:04:43;;;;;;;;;;;;;;;;;;2073221;28;19955;-88
2022/11/12 06:05:44;;;;;;;;;;;;;;;;;;2073182;28;19948;-88
2022/11/12 06:06:44;;;;;;;;;;;;;;;;;;2065686;28;19925;-89
2022/11/12 06:07:44;;;;;;;;;;;;;;;;;;2065171;28;19921;-88
2022/11/12 06:08:45;;;;;;;;;;;;;;;;;;2065060;28;19913;-88
2022/11/12 06:09:45;;;;;;;;;;;;;;;;;;2065766;28;20554;-89
2022/11/12 06:10:48;;;;;;;;;;;;;;;;;;2070873;28;19953;-88
2022/11/12 06:11:49;;;;;;;;;;;;;;;;;;2073022;28;19909;-89
2022/11/12 06:12:49;;;;;;;;;;;;;;;;;;2065266;28;19910;-88
2022/11/12 06:13:50;;;;;;;;;;;;;;;;;;2065067;28;19944;-88
2022/11/12 06:14:50;;;;;;;;;;;;;;;;;;2065098;28;20393;-89
2022/11/12 06:15:51;;;;;;;;;;;;;;;;;;2065849;28;20302;-88
2022/11/12 06:16:51;;;;;;;;;;;;;;;;;;2060080;28;19917;-88
2022/11/12 06:17:52;;;;;;;;;;;;;;;;;;2068749;28;20012;-87
2022/11/12 06:18:53;;;;;;;;;;;;;;;;;;2071724;28;19917;-87
2022/11/12 06:19:54;;;;;;;;;;;;;;;;;;2071293;28;19996;-86
2022/11/12 06:21:23;;;;;;;;;;;;;;;;;;2070834;28;19950;-89
2022/11/12 06:22:23;;;;;;;;;;;;;;;;;;2070791;28;20369;-87
2022/11/12 06:23:24;;;;;;;;;;;;;;;;;;2069514;28;20004;-88
2022/11/12 06:24:24;;;;;;;;;;;;;;;;;;2067721;28;20026;-88
2022/11/12 06:25:25;;;;;;;;;;;;;;;;;;2065515;28;20316;-87
2022/11/12 06:26:26;;;;;;;;;;;;;;;;;;2062542;28;20064;-86
2022/11/12 06:27:26;;;;;;;;;;;;;;;;;;2060166;28;19918;-87
2022/11/12 06:28:27;;;;;;;;;;;;;;;;;;2062535;28;19909;-87
2022/11/12 06:29:28;;;;;;;;;;;;;;;;;;2057741;28;19914;-86
2022/11/12 06:30:29;;;;;;;;;;;;;;;;;;2058377;28;19949;-86
2022/11/12 06:31:29;;;;;;;;;;;;;;;;;;2066664;28;20377;-86
2022/11/12 06:32:29;;;;;;;;;;;;;;;;;;2060211;28;19936;-87
2022/11/12 06:33:30;;;;;;;;;;;;;;;;;;1367149;28;10020669;-89
2022/11/12 06:34:30;;;;;;;;;;;;;;;;;;2066473;28;19981;-88
2022/11/12 06:35:30;;;;;;;;;;;;;;;;;;1718445;28;10001885;-87
2022/11/12 06:36:31;;;;;;;;;;;;;;;;;;2062961;28;20000;-89
2022/11/12 06:37:31;;;;;;;;;;;;;;;;;;2062161;28;19902;-89
2022/11/12 06:38:32;;;;;;;;;;;;;;;;;;2063211;28;19909;-89
2022/11/12 06:39:33;;;;;;;;;;;;;;;;;;2060621;28;19918;-90
2022/11/12 06:40:33;;;;;;;;;;;;;;;;;;2059771;28;20656;-89
2022/11/12 06:41:34;;;;;;;;;;;;;;;;;;1706629;28;10249650;-88
2022/11/12 06:43:08;;;;;;;;;;;;;;;;;;2065175;28;20036;-89
2022/11/12 06:44:32;;;;;;;;;;;;;;;;;;2064873;28;19910;-88
2022/11/12 06:45:34;;;;;;;;;;;;;;;;;;2063122;28;19932;-89
2022/11/12 06:46:34;;;;;;;;;;;;;;;;;;2063547;28;20024;-89
2022/11/12 06:47:37;;;;;;;;;;;;;;;;;;2064658;28;19920;-90
2022/11/12 06:48:38;;;;;;;;;;;;;;;;;;2062392;28;19914;-89
2022/11/12 06:49:38;;;;;;;;;;;;;;;;;;2068244;28;19918;-89
2022/11/12 06:50:38;;;;;;;;;;;;;;;;;;2056188;28;19944;-88
2022/11/12 06:51:42;;;;;;;;;;;;;;;;;;2054406;28;19914;-88
2022/11/12 06:52:42;;;;;;;;;;;;;;;;;;2064239;28;19909;-89
2022/11/12 06:53:42;;;;;;;;;;;;;;;;;;2058005;28;19917;-89
2022/11/12 06:54:43;;;;;;;;;;;;;;;;;;2062660;28;19921;-89
2022/11/12 06:55:43;;;;;;;;;;;;;;;;;;2065420;28;19948;-87
2022/11/12 06:56:43;;;;;;;;;;;;;;;;;;2072988;28;19952;-87
2022/11/12 06:57:44;;;;;;;;;;;;;;;;;;2064734;28;20360;-87
2022/11/12 06:58:44;;;;;;;;;;;;;;;;;;2066902;28;19909;-88
2022/11/12 06:59:44;;;;;;;;;;;;;;;;;;2064877;28;20565;-88
2022/11/12 07:00:44;;;;;;;;;;;;;;;;;;2065284;28;19914;-87
2022/11/12 07:01:45;;;;;;;;;;;;;;;;;;2064967;28;19914;-86
2022/11/12 07:02:45;;;;;;;;;;;;;;;;;;2057021;28;19937;-87
2022/11/12 07:03:45;;;;;;;;;;;;;;;;;;2065007;28;19944;-88
2022/11/12 07:04:46;;;;;;;;;;;;;;;;;;2064462;28;20008;-88
2022/11/12 07:05:46;;;;;;;;;;;;;;;;;;2061051;28;19917;-89
2022/11/12 07:06:46;;;;;;;;;;;;;;;;;;2066502;28;20431;-89
2022/11/12 07:07:46;;;;;;;;;;;;;;;;;;2071767;28;19995;-90
2022/11/12 07:08:50;;;;;;;;;;;;;;;;;;2063988;28;19910;-89
2022/11/12 07:09:50;;;;;;;;;;;;;;;;;;2062524;28;20284;-90
2022/11/12 07:10:55;;;;;;;;;;;;;;;;;;2063767;28;20282;-89
2022/11/12 07:11:56;;;;;;;;;;;;;;;;;;2069927;28;19914;-89
2022/11/12 07:12:57;;;;;;;;;;;;;;;;;;2071440;28;20015;-89
2022/11/12 07:13:57;;;;;;;;;;;;;;;;;;2062050;28;19965;-90
2022/11/12 07:14:57;;;;;;;;;;;;;;;;;;2065277;28;19922;-89
2022/11/12 07:15:59;;;;;;;;;;;;;;;;;;2066911;28;19957;-91
2022/11/12 07:16:59;;;;;;;;;;;;;;;;;;2066515;28;20376;-90
2022/11/12 07:17:59;;;;;;;;;;;;;;;;;;2065982;28;19921;-89
2022/11/12 07:19:02;;;;;;;;;;;;;;;;;;2066526;28;19914;-88